createdAt,value
2018-08-13T00:00:31.710Z,1.70
2018-08-13T00:03:04.991Z,1.47
2018-08-13T00:05:38.038Z,1.57
2018-08-13T00:08:11.455Z,1.30
2018-08-13T00:10:44.864Z,1.30
2018-08-13T00:13:18.008Z,1.40
2018-08-13T00:15:51.594Z,1.37
2018-08-13T00:18:24.588Z,1.93
2018-08-13T00:20:59.633Z,1.50
2018-08-13T00:23:30.478Z,1.57
2018-08-13T00:26:03.432Z,1.30
2018-08-13T00:28:36.455Z,1.40
2018-08-13T00:31:09.419Z,1.63
2018-08-13T00:33:43.160Z,1.10
2018-08-13T00:36:16.099Z,1.30
2018-08-13T00:38:49.123Z,1.57
2018-08-13T00:41:22.785Z,1.10
2018-08-13T00:43:54.462Z,1.63
2018-08-13T00:46:27.577Z,1.27
2018-08-13T00:49:00.828Z,1.27
2018-08-13T00:51:34.902Z,1.43
2018-08-13T00:54:07.650Z,1.50
2018-08-13T00:56:41.197Z,1.07
2018-08-13T00:59:14.437Z,1.60
2018-08-13T01:01:47.498Z,1.17
2018-08-13T01:04:21.052Z,1.57
2018-08-13T01:06:54.234Z,1.53
2018-08-13T01:09:27.945Z,1.60
2018-08-13T01:11:59.352Z,1.70
2018-08-13T01:14:32.813Z,1.83
2018-08-13T01:17:06.095Z,1.83
2018-08-13T01:19:35.740Z,1.67
2018-08-13T01:22:05.477Z,1.20
2018-08-13T01:24:35.620Z,1.63
2018-08-13T01:27:05.123Z,1.40
2018-08-13T01:29:34.787Z,1.33
2018-08-13T01:32:04.397Z,1.73
2018-08-13T01:34:33.934Z,1.40
2018-08-13T01:37:03.484Z,1.40
2018-08-13T01:39:33.014Z,1.30
2018-08-13T01:42:02.885Z,1.37
2018-08-13T01:44:32.809Z,1.53
2018-08-13T01:47:02.349Z,1.37
2018-08-13T01:49:31.886Z,1.40
2018-08-13T01:52:01.450Z,1.33
2018-08-13T01:54:31.013Z,1.47
2018-08-13T01:57:00.869Z,1.67
2018-08-13T01:59:30.394Z,1.60
2018-08-13T02:02:00.070Z,1.70
2018-08-13T02:04:30.049Z,1.80
2018-08-13T02:06:59.918Z,2.03
2018-08-13T02:09:33.315Z,2.00
2018-08-13T02:12:04.126Z,2.17
2018-08-13T02:14:34.090Z,2.73
2018-08-13T02:17:04.005Z,1.90
2018-08-13T02:19:34.180Z,2.20
2018-08-13T02:22:03.764Z,2.60
2018-08-13T02:24:33.417Z,2.77
2018-08-13T02:27:03.810Z,2.47
2018-08-13T02:29:33.665Z,3.30
2018-08-13T02:32:03.253Z,2.43
2018-08-13T02:34:32.776Z,2.50
2018-08-13T02:37:02.337Z,2.53
2018-08-13T02:39:32.098Z,2.77
2018-08-13T02:42:02.036Z,3.10
2018-08-13T02:44:31.983Z,3.10
2018-08-13T02:47:01.470Z,3.90
2018-08-13T02:49:31.360Z,3.27
2018-08-13T02:52:01.316Z,3.97
2018-08-13T02:54:31.805Z,5.00
2018-08-13T02:57:01.325Z,4.73
2018-08-13T02:59:31.599Z,4.67
2018-08-13T03:02:01.573Z,4.33
2018-08-13T03:04:31.221Z,5.37
2018-08-13T03:07:01.009Z,4.50
2018-08-13T03:09:30.568Z,4.93
2018-08-13T03:12:00.762Z,3.67
2018-08-13T03:14:30.253Z,4.17
2018-08-13T03:16:59.809Z,3.50
2018-08-13T03:19:29.667Z,3.73
2018-08-13T03:21:59.868Z,3.53
2018-08-13T03:24:29.772Z,3.27
2018-08-13T03:26:59.378Z,3.40
2018-08-13T03:29:28.944Z,3.47
2018-08-13T03:31:58.501Z,4.47
2018-08-13T03:34:28.388Z,4.10
2018-08-13T03:36:58.570Z,3.53
2018-08-13T03:39:28.445Z,3.07
2018-08-13T03:41:58.025Z,3.30
2018-08-13T03:44:28.037Z,3.17
2018-08-13T03:46:57.623Z,3.40
2018-08-13T03:49:27.725Z,3.80
2018-08-13T03:51:57.254Z,3.13
2018-08-13T03:54:26.836Z,3.90
2018-08-13T03:56:56.387Z,3.27
2018-08-13T03:59:26.001Z,3.50
2018-08-13T04:01:56.053Z,2.37
2018-08-13T04:04:25.980Z,2.33
2018-08-13T04:06:56.019Z,2.47
2018-08-13T04:09:25.910Z,2.07
2018-08-13T04:11:56.204Z,2.23
2018-08-13T04:14:26.211Z,2.13
2018-08-13T04:16:59.651Z,2.07
2018-08-13T04:19:29.812Z,2.63
2018-08-13T04:22:00.144Z,2.00
2018-08-13T04:24:30.204Z,2.40
2018-08-13T04:27:00.729Z,2.30
2018-08-13T04:29:30.472Z,2.20
2018-08-13T04:32:00.356Z,3.00
2018-08-13T04:34:29.945Z,3.13
2018-08-13T04:36:59.642Z,3.20
2018-08-13T04:39:29.514Z,3.40
2018-08-13T04:41:59.280Z,3.63
2018-08-13T04:44:29.568Z,4.63
2018-08-13T04:46:59.573Z,3.90
2018-08-13T04:49:29.115Z,4.33
2018-08-13T04:51:58.658Z,3.77
2018-08-13T04:54:28.214Z,3.93
2018-08-13T04:56:57.794Z,3.97
2018-08-13T04:59:27.399Z,2.50
2018-08-13T05:01:57.035Z,2.33
2018-08-13T05:04:26.627Z,1.90
2018-08-13T05:06:56.142Z,1.73
2018-08-13T05:09:25.692Z,1.70
2018-08-13T05:11:55.642Z,1.90
2018-08-13T05:14:25.734Z,1.47
2018-08-13T05:16:55.307Z,1.30
2018-08-13T05:19:24.883Z,1.77
2018-08-13T05:21:54.768Z,1.37
2018-08-13T05:24:24.362Z,1.37
2018-08-13T05:26:53.980Z,1.43
2018-08-13T05:29:23.519Z,1.80
2018-08-13T05:31:53.069Z,1.43
2018-08-13T05:34:22.652Z,1.10
2018-08-13T05:36:52.302Z,1.57
2018-08-13T05:39:21.846Z,1.53
2018-08-13T05:41:51.409Z,1.60
2018-08-13T05:44:21.282Z,1.70
2018-08-13T05:46:50.888Z,1.53
2018-08-13T05:49:20.438Z,1.80
2018-08-13T05:51:50.864Z,1.53
2018-08-13T05:54:20.649Z,2.83
2018-08-13T05:56:50.401Z,2.00
2018-08-13T05:59:20.280Z,1.70
2018-08-13T06:01:50.525Z,2.17
2018-08-13T06:04:20.515Z,1.70
2018-08-13T06:06:50.118Z,1.77
2018-08-13T06:09:20.156Z,1.70
2018-08-13T06:11:50.085Z,1.43
2018-08-13T06:14:19.801Z,1.40
2018-08-13T06:16:49.493Z,1.90
2018-08-13T06:19:19.384Z,1.80
2018-08-13T06:21:49.004Z,2.00
2018-08-13T06:24:18.642Z,1.40
2018-08-13T06:26:48.849Z,1.47
2018-08-13T06:29:18.367Z,1.90
2018-08-13T06:31:47.923Z,1.30
2018-08-13T06:34:17.586Z,1.77
2018-08-13T06:36:47.638Z,1.60
2018-08-13T06:39:17.219Z,1.57
2018-08-13T06:41:46.813Z,1.10
2018-08-13T06:44:16.428Z,1.70
2018-08-13T06:46:46.174Z,1.70
2018-08-13T06:49:15.855Z,1.20
2018-08-13T06:51:45.445Z,1.40
2018-08-13T06:54:15.034Z,1.80
2018-08-13T06:56:44.715Z,1.50
2018-08-13T06:59:14.736Z,1.57
2018-08-13T07:01:44.630Z,1.43
2018-08-13T07:04:14.514Z,1.17
2018-08-13T07:06:44.476Z,1.10
2018-08-13T07:09:14.787Z,1.30
2018-08-13T07:11:44.391Z,1.87
2018-08-13T07:14:14.440Z,1.97
2018-08-13T07:16:44.581Z,1.47
2018-08-13T07:19:14.553Z,1.33
2018-08-13T07:21:44.183Z,2.10
2018-08-13T07:24:14.271Z,1.63
2018-08-13T07:26:43.998Z,1.53
2018-08-13T07:29:14.209Z,1.50
2018-08-13T07:31:48.892Z,1.80
2018-08-13T07:34:18.814Z,1.80
2018-08-13T07:36:48.737Z,1.37
2018-08-13T07:39:20.016Z,1.50
2018-08-13T07:41:50.319Z,1.60
2018-08-13T07:44:21.014Z,1.50
2018-08-13T07:47:00.557Z,1.80
2018-08-13T07:49:30.295Z,1.63
2018-08-13T07:51:59.986Z,1.80
2018-08-13T07:54:30.203Z,2.30
2018-08-13T07:56:59.769Z,2.10
2018-08-13T07:59:29.860Z,1.70
2018-08-13T08:01:59.926Z,2.10
2018-08-13T08:04:29.786Z,1.50
2018-08-13T08:06:59.896Z,1.80
2018-08-13T08:09:29.486Z,1.30
2018-08-13T08:11:59.148Z,1.50
2018-08-13T08:14:29.597Z,1.37
2018-08-13T08:17:00.357Z,1.80
2018-08-13T08:19:30.005Z,1.63
2018-08-13T08:21:59.747Z,1.87
2018-08-13T08:24:29.466Z,1.53
2018-08-13T08:26:59.084Z,1.60
2018-08-13T08:29:28.684Z,2.10
2018-08-13T08:31:58.544Z,1.40
2018-08-13T08:34:28.430Z,1.70
2018-08-13T08:36:58.071Z,2.27
2018-08-13T08:39:27.822Z,1.63
2018-08-13T08:41:57.392Z,1.27
2018-08-13T08:44:27.636Z,1.70
2018-08-13T08:46:57.141Z,1.40
2018-08-13T08:49:26.717Z,1.73
2018-08-13T08:51:56.749Z,1.40
2018-08-13T08:54:26.703Z,1.40
2018-08-13T08:56:56.247Z,1.63
2018-08-13T08:59:26.170Z,1.70
2018-08-13T09:01:55.813Z,1.20
2018-08-13T09:04:25.339Z,1.13
2018-08-13T09:06:55.126Z,1.30
2018-08-13T09:09:24.727Z,1.40
2018-08-13T09:11:54.345Z,1.43
2018-08-13T09:14:24.425Z,0.87
2018-08-13T09:16:54.313Z,1.50
2018-08-13T09:19:40.942Z,1.27
2018-08-13T09:22:27.513Z,1.43
2018-08-13T09:25:14.047Z,1.70
2018-08-13T09:28:00.604Z,1.20
2018-08-13T09:30:47.076Z,1.33
2018-08-13T09:33:33.748Z,1.43
2018-08-13T09:36:03.646Z,1.37
2018-08-13T09:38:33.383Z,1.10
2018-08-13T09:41:03.077Z,1.30
2018-08-13T09:43:32.977Z,1.13
2018-08-13T09:46:02.828Z,1.73
2018-08-13T09:48:33.118Z,1.60
2018-08-13T09:51:05.153Z,1.63
2018-08-13T09:53:35.132Z,1.97
2018-08-13T09:56:04.977Z,1.77
2018-08-13T09:58:34.696Z,2.10
2018-08-13T10:01:08.051Z,1.67
2018-08-13T10:03:38.069Z,1.40
2018-08-13T10:06:07.685Z,1.43
2018-08-13T10:08:37.333Z,1.80
2018-08-13T10:11:06.987Z,1.47
2018-08-13T10:13:36.777Z,1.40
2018-08-13T10:16:06.471Z,1.23
2018-08-13T10:18:36.229Z,0.87
2018-08-13T10:21:05.834Z,1.30
2018-08-13T10:23:35.397Z,1.37
2018-08-13T10:26:05.693Z,1.17
2018-08-13T10:28:35.662Z,1.10
2018-08-13T10:31:05.282Z,1.10
2018-08-13T10:33:34.910Z,1.10
2018-08-13T10:36:04.844Z,1.10
2018-08-13T10:38:34.887Z,0.90
2018-08-13T10:41:04.438Z,1.60
2018-08-13T10:43:34.115Z,1.10
2018-08-13T10:46:03.865Z,0.93
2018-08-13T10:48:33.815Z,1.20
2018-08-13T10:51:03.745Z,1.23
2018-08-13T10:53:33.609Z,1.03
2018-08-13T10:56:03.231Z,0.80
2018-08-13T10:58:33.341Z,1.40
2018-08-13T11:01:03.049Z,1.20
2018-08-13T11:03:32.880Z,1.13
2018-08-13T11:06:02.447Z,1.07
2018-08-13T11:08:32.205Z,0.80
2018-08-13T11:11:01.797Z,1.23
2018-08-13T11:13:31.473Z,1.10
2018-08-13T11:16:01.295Z,1.30
2018-08-13T11:18:31.501Z,1.10
2018-08-13T11:21:01.109Z,1.00
2018-08-13T11:23:31.007Z,1.03
2018-08-13T11:26:00.665Z,1.00
2018-08-13T11:28:30.609Z,1.20
2018-08-13T11:31:00.377Z,1.00
2018-08-13T11:33:30.492Z,1.17
2018-08-13T11:36:00.157Z,1.03
2018-08-13T11:38:30.620Z,1.30
2018-08-13T11:41:00.256Z,1.03
2018-08-13T11:43:29.892Z,1.10
2018-08-13T11:45:59.830Z,1.10
2018-08-13T11:48:29.920Z,0.97
2018-08-13T11:50:59.536Z,1.00
2018-08-13T11:53:29.291Z,1.43
2018-08-13T11:55:58.965Z,1.20
2018-08-13T11:58:28.515Z,1.30
2018-08-13T12:00:58.485Z,1.40
2018-08-13T12:03:28.579Z,1.20
2018-08-13T12:05:58.535Z,1.37
2018-08-13T12:08:28.207Z,1.10
2018-08-13T12:10:58.189Z,1.10
2018-08-13T12:13:27.854Z,1.30
2018-08-13T12:15:57.828Z,1.27
2018-08-13T12:18:27.783Z,1.03
2018-08-13T12:20:57.321Z,1.20
2018-08-13T12:23:26.852Z,1.20
2018-08-13T12:25:56.857Z,1.20
2018-08-13T12:28:26.529Z,1.50
2018-08-13T12:30:56.097Z,2.20
2018-08-13T12:33:25.937Z,1.50
2018-08-13T12:35:55.568Z,1.97
2018-08-13T12:38:25.217Z,1.87
2018-08-13T12:40:55.195Z,2.27
2018-08-13T12:43:25.247Z,2.00
2018-08-13T12:45:54.885Z,1.50
2018-08-13T12:48:24.418Z,1.50
2018-08-13T12:50:54.016Z,1.60
2018-08-13T12:53:24.054Z,1.60
2018-08-13T12:55:53.996Z,1.57
2018-08-13T12:58:23.799Z,1.93
2018-08-13T13:00:59.305Z,1.40
2018-08-13T13:03:29.988Z,1.40
2018-08-13T13:05:59.577Z,1.67
2018-08-13T13:08:29.886Z,1.30
2018-08-13T13:11:00.123Z,1.50
2018-08-13T13:13:29.860Z,1.50
2018-08-13T13:16:00.670Z,1.20
2018-08-13T13:18:31.033Z,1.20
2018-08-13T13:21:00.845Z,1.50
2018-08-13T13:23:31.487Z,1.50
2018-08-13T13:26:01.880Z,1.53
2018-08-13T13:28:32.069Z,1.30
2018-08-13T13:31:01.987Z,1.20
2018-08-13T13:33:33.820Z,1.53
2018-08-13T13:36:03.633Z,2.40
2018-08-13T13:38:34.721Z,1.77
2018-08-13T13:41:05.475Z,2.13
2018-08-13T13:43:37.093Z,1.90
2018-08-13T13:46:09.990Z,2.17
2018-08-13T13:48:40.095Z,2.10
2018-08-13T13:51:10.851Z,2.40
2018-08-13T13:53:41.777Z,2.77
2018-08-13T13:56:12.368Z,2.60
2018-08-13T13:58:42.920Z,3.10
2018-08-13T14:01:13.566Z,2.57
2018-08-13T14:03:43.645Z,2.47
2018-08-13T14:06:13.520Z,2.40
2018-08-13T14:08:43.533Z,3.43
2018-08-13T14:11:13.123Z,3.33
2018-08-13T14:13:43.044Z,3.00
2018-08-13T14:16:12.744Z,2.83
2018-08-13T14:18:42.715Z,2.50
2018-08-13T14:21:12.297Z,2.07
2018-08-13T14:23:41.903Z,2.30
2018-08-13T14:26:11.540Z,2.00
2018-08-13T14:28:42.176Z,1.63
2018-08-13T14:31:11.782Z,1.70
2018-08-13T14:33:41.398Z,2.13
2018-08-13T14:36:10.982Z,1.97
2018-08-13T14:38:41.305Z,1.80
2018-08-13T14:41:11.510Z,1.90
2018-08-13T14:43:41.100Z,1.97
2018-08-13T14:46:11.419Z,2.60
2018-08-13T14:48:41.377Z,2.03
2018-08-13T14:51:10.981Z,1.90
2018-08-13T14:53:40.962Z,2.13
2018-08-13T14:56:10.574Z,2.13
2018-08-13T14:58:41.170Z,2.03
2018-08-13T15:01:10.776Z,1.73
2018-08-13T15:03:40.497Z,2.13
2018-08-13T15:06:10.516Z,2.43
2018-08-13T15:08:40.743Z,1.60
2018-08-13T15:11:10.321Z,1.60
2018-08-13T15:13:39.913Z,1.57
2018-08-13T15:16:09.860Z,1.43
2018-08-13T15:18:39.744Z,1.57
2018-08-13T15:21:09.490Z,1.80
2018-08-13T15:23:39.694Z,2.10
2018-08-13T15:26:09.268Z,1.50
2018-08-13T15:28:38.857Z,1.30
2018-08-13T15:31:08.731Z,1.27
2018-08-13T15:33:38.259Z,1.40
2018-08-13T15:36:07.965Z,1.57
2018-08-13T15:38:38.987Z,1.30
2018-08-13T15:41:08.586Z,1.60
2018-08-13T15:43:38.466Z,1.43
2018-08-13T15:46:08.420Z,1.47
2018-08-13T15:48:37.966Z,1.60
2018-08-13T15:51:07.613Z,1.57
2018-08-13T15:53:37.237Z,2.00
2018-08-13T15:56:07.112Z,1.90
2018-08-13T15:58:37.086Z,1.53
2018-08-13T16:01:07.339Z,1.70
2018-08-13T16:03:37.157Z,2.43
2018-08-13T16:06:06.722Z,2.40
2018-08-13T16:08:36.653Z,2.20
2018-08-13T16:11:07.150Z,2.67
2018-08-13T16:13:36.757Z,2.47
2018-08-13T16:16:06.335Z,3.03
2018-08-13T16:18:37.266Z,2.87
2018-08-13T16:21:07.187Z,2.53
2018-08-13T16:23:38.664Z,2.40
2018-08-13T16:26:08.252Z,2.73
2018-08-13T16:28:37.845Z,2.23
2018-08-13T16:31:07.473Z,2.13
2018-08-13T16:33:37.075Z,3.33
2018-08-13T16:36:07.087Z,2.43
2018-08-13T16:38:36.612Z,2.93
2018-08-13T16:41:07.241Z,2.53
2018-08-13T16:43:37.289Z,2.77
2018-08-13T16:46:07.159Z,2.87
2018-08-13T16:48:36.786Z,3.03
2018-08-13T16:51:06.409Z,2.83
2018-08-13T16:53:36.301Z,2.43
2018-08-13T16:56:06.162Z,2.77
2018-08-13T16:58:36.287Z,2.77
2018-08-13T17:01:07.120Z,3.07
2018-08-13T17:03:36.847Z,3.07
2018-08-13T17:06:06.548Z,2.83
2018-08-13T17:08:36.540Z,2.87
2018-08-13T17:11:06.293Z,2.77
2018-08-13T17:13:36.856Z,2.63
2018-08-13T17:16:08.545Z,2.33
2018-08-13T17:18:38.398Z,3.13
2018-08-13T17:21:08.431Z,2.93
2018-08-13T17:23:39.869Z,2.50
2018-08-13T17:26:09.695Z,3.30
2018-08-13T17:28:39.261Z,2.50
2018-08-13T17:31:09.249Z,2.90
2018-08-13T17:33:38.902Z,2.93
2018-08-13T17:36:08.575Z,3.20
2018-08-13T17:38:39.471Z,2.83
2018-08-13T17:41:09.481Z,2.63
2018-08-13T17:43:39.288Z,3.20
2018-08-13T17:46:09.095Z,2.30
2018-08-13T17:48:38.923Z,2.20
2018-08-13T17:51:08.588Z,2.20
2018-08-13T17:53:38.131Z,2.10
2018-08-13T17:56:08.623Z,1.90
2018-08-13T17:58:38.160Z,2.13
2018-08-13T18:01:08.348Z,2.03
2018-08-13T18:03:38.340Z,1.70
2018-08-13T18:06:08.406Z,1.70
2018-08-13T18:08:39.979Z,1.60
2018-08-13T18:11:09.446Z,1.40
2018-08-13T18:13:39.039Z,1.43
2018-08-13T18:16:09.019Z,1.47
2018-08-13T18:18:38.754Z,1.50
2018-08-13T18:21:08.498Z,1.03
2018-08-13T18:23:38.428Z,1.80
2018-08-13T18:26:08.010Z,1.90
2018-08-13T18:28:37.737Z,1.23
2018-08-13T18:31:08.352Z,1.33
2018-08-13T18:33:38.498Z,1.70
2018-08-13T18:36:09.826Z,1.97
2018-08-13T18:38:39.769Z,1.70
2018-08-13T18:41:10.397Z,1.60
2018-08-13T18:43:40.220Z,1.80
2018-08-13T18:46:10.160Z,1.60
2018-08-13T18:48:39.661Z,1.70
2018-08-13T18:51:09.160Z,1.77
2018-08-13T18:53:39.173Z,1.50
2018-08-13T18:56:09.727Z,1.50
2018-08-13T18:58:39.429Z,1.80
2018-08-13T19:01:09.351Z,1.60
2018-08-13T19:03:39.448Z,1.60
2018-08-13T19:06:09.658Z,2.13
2018-08-13T19:08:39.224Z,1.67
2018-08-13T19:11:09.330Z,1.80
2018-08-13T19:13:39.414Z,2.30
2018-08-13T19:16:09.175Z,2.00
2018-08-13T19:18:38.648Z,1.73
2018-08-13T19:21:08.897Z,1.80
2018-08-13T19:23:38.463Z,1.83
2018-08-13T19:26:08.821Z,2.20
2018-08-13T19:28:38.579Z,2.07
2018-08-13T19:31:08.344Z,2.47
2018-08-13T19:33:38.355Z,1.80
2018-08-13T19:36:08.167Z,2.40
2018-08-13T19:38:38.228Z,1.53
2018-08-13T19:41:08.539Z,2.90
2018-08-13T19:43:38.597Z,2.37
2018-08-13T19:46:08.867Z,2.43
2018-08-13T19:48:39.022Z,2.93
2018-08-13T19:51:08.606Z,2.70
2018-08-13T19:53:38.784Z,2.60
2018-08-13T19:56:08.700Z,2.50
2018-08-13T19:58:38.232Z,2.80
2018-08-13T20:01:08.159Z,2.80
2018-08-13T20:03:37.724Z,3.00
2018-08-13T20:06:10.888Z,2.40
2018-08-13T20:08:44.220Z,2.20
2018-08-13T20:11:16.508Z,2.60
2018-08-13T20:13:50.108Z,2.75
2018-08-13T20:16:22.657Z,2.27
2018-08-13T20:18:55.835Z,2.57
2018-08-13T20:21:27.974Z,1.77
2018-08-13T20:24:00.333Z,2.60
2018-08-13T20:26:31.859Z,2.35
2018-08-13T20:29:04.379Z,2.03
2018-08-13T20:31:39.185Z,2.35
2018-08-13T20:36:53.922Z,2.93
2018-08-13T20:39:26.310Z,3.22
2018-08-13T20:41:56.702Z,3.00
2018-08-13T20:44:29.392Z,2.50
2018-08-13T20:47:01.342Z,2.40
2018-08-13T20:49:34.700Z,2.90
2018-08-13T20:52:07.361Z,2.40
2018-08-13T20:54:41.066Z,3.22
2018-08-13T20:57:11.553Z,3.13
2018-08-13T20:59:44.480Z,2.83
2018-08-13T21:02:15.176Z,3.30
2018-08-13T21:04:47.992Z,3.33
2018-08-13T21:07:21.369Z,3.13
2018-08-13T21:09:51.450Z,2.70
2018-08-13T21:12:22.675Z,2.87
2018-08-13T21:14:52.840Z,3.30
2018-08-13T21:17:23.926Z,2.83
2018-08-13T21:19:55.955Z,2.50
2018-08-13T21:22:26.721Z,2.83
2018-08-13T21:24:56.598Z,2.60
2018-08-13T21:27:26.535Z,2.25
2018-08-13T21:29:56.023Z,2.00
2018-08-13T21:32:25.892Z,2.87
2018-08-13T21:34:55.573Z,2.20
2018-08-13T21:37:25.365Z,2.15
2018-08-13T21:39:57.951Z,2.17
2018-08-13T21:42:29.512Z,2.40
2018-08-13T21:45:00.897Z,2.10
2018-08-13T21:47:33.226Z,2.33
2018-08-13T21:50:07.877Z,2.00
2018-08-13T21:52:39.405Z,1.77
2018-08-13T21:55:10.678Z,2.57
2018-08-13T21:57:42.496Z,2.30
2018-08-13T22:00:40.332Z,2.57
2018-08-13T22:03:12.087Z,2.33
2018-08-13T22:05:45.220Z,2.10
2018-08-13T22:08:16.235Z,2.50
2018-08-13T22:10:48.780Z,2.17
2018-08-13T22:13:19.517Z,2.30
2018-08-13T22:15:50.939Z,2.33
2018-08-13T22:18:27.702Z,2.33
2018-08-13T22:21:00.138Z,2.57
2018-08-13T22:23:32.381Z,2.40
2018-08-13T22:26:05.051Z,1.97
2018-08-13T22:28:34.838Z,2.00
2018-08-13T22:31:07.863Z,2.80
2018-08-13T22:33:39.359Z,2.10
2018-08-13T22:36:11.750Z,2.67
2018-08-13T22:38:44.195Z,2.73
2018-08-13T22:41:16.720Z,2.47
2018-08-13T22:43:48.407Z,2.60
2018-08-13T22:46:21.111Z,2.67
2018-08-13T22:48:51.364Z,2.77
2018-08-13T22:51:23.271Z,2.63
2018-08-13T22:53:54.218Z,2.50
2018-08-13T22:56:25.313Z,2.20
2018-08-13T22:58:57.157Z,2.80
2018-08-13T23:01:30.141Z,2.63
2018-08-13T23:04:03.445Z,2.47
2018-08-13T23:06:35.797Z,2.90
2018-08-13T23:09:11.085Z,1.97
2018-08-13T23:11:41.170Z,2.40
2018-08-13T23:14:13.461Z,2.53
2018-08-13T23:16:43.911Z,2.30
2018-08-13T23:19:15.209Z,2.30
2018-08-13T23:21:48.256Z,2.20
2018-08-13T23:24:19.374Z,1.97
2018-08-13T23:26:49.838Z,2.83
2018-08-13T23:44:11.473Z,2.60
2018-08-13T23:46:43.398Z,3.20
2018-08-13T23:49:14.417Z,2.50
2018-08-13T23:51:46.177Z,2.60
2018-08-13T23:54:17.666Z,2.83
2018-08-13T23:56:49.591Z,3.00
2018-08-13T23:59:22.134Z,3.03
